Adger, AL

6:22 AM CDT on July 27, 2016 (GMT -0500)
Alliance | | Change Station

Elev 545 ft 33.52 °N, 87.14 °W | Updated 33 seconds ago

Overcast
Overcast
76.1 °F
Feels Like 77 °F
N
0.0
Wind Variable Wind from WSW

Today
High -- | Low -- °F
--% Chance of Precip.
Yesterday
High -- | Low -- °F
Precip. -- in
Pressure 30.02 in
Visibility 10.0 miles
Clouds Overcast 1900 ft
Heat Index 77 °F
Dew Point 71 °F
Humidity 85%
Rainfall 0.00 in
Snow Depth Not available.
5:58 AM 7:51 PM
Last Quarter, 44% visible
METAR KBHM 271053Z 20006KT 10SM OVC019 26/22 A3005 RMK AO2 SLP164 T02560222
Pressure 30.02 in
Visibility 10.0 miles
Clouds Overcast 1900 ft
Heat Index 77 °F
Dew Point 71 °F
Humidity 85%
Rainfall 0.00 in
Snow Depth Not available.
5:58 AM 7:51 PM
Last Quarter, 44% visible
METAR KBHM 271053Z 20006KT 10SM OVC019 26/22 A3005 RMK AO2 SLP164 T02560222

10-Day Weather Forecast

Almanac

Astronomy

Jul. 27, 2016 Rise Set
Actual Time
Civil Twilight
Nautical Twilight
Astronomical Twilight
Moon
Length of Visible Light
Length of Day
Tomorrow will be .
, % of the Moon is Illuminated

Today's Extremes

State Highs State Lows

Community

WunderPhotos

Upload Photos

1,927,826 photos uploaded!

WunderBlog® & News

Nearby

Air Quality

  Air Quality AQ Index Pollutant
Not available.

Snow Depth

Station Depth Elevation

Earthquake Activity

City Distance Mag. Time & Date
Minimum magnitude displayed is 2.5.

Coastal Water Temperatures

Place Temperature

Stations

Nearby Weather Stations

Station Location Temp. Windchill Dew Point Humidity Wind Precip. Elev Updated Type
                   

Watches & Warnings

There are currently no watches in effect.